Time;durP1;ratioP1;P1;durP2;ratioP2;P2;SDS_P1;SDS_P2;PMS_P1;PMS_P2;Temp;Humidity;BMP_temperature;BMP_pressure;BME280_temperature;BME280_humidity;BME280_pressure;Samples;Min_cycle;Max_cycle;Signal;HPM_P1;HPM_P2
2023/03/02 00:01:52;;;;;;;33.45;16.88;;;;;;;2.41;100.00;102501.91;5071143;28;20150;-51
2023/03/02 00:04:24;;;;;;;36.45;18.23;;;;;;;2.35;100.00;102502.25;5071465;28;20021;-55
2023/03/02 00:06:51;;;;;;;39.15;19.15;;;;;;;2.28;100.00;102506.19;5070430;28;20391;-53
2023/03/02 00:09:16;;;;;;;39.45;19.92;;;;;;;2.31;100.00;102505.16;5070043;28;20034;-54
2023/03/02 00:11:42;;;;;;;40.95;19.25;;;;;;;2.32;100.00;102513.06;5071192;28;20111;-52
2023/03/02 00:14:07;;;;;;;41.97;20.23;;;;;;;2.32;100.00;102506.91;5071061;28;20056;-55
2023/03/02 00:16:33;;;;;;;43.95;20.95;;;;;;;2.33;100.00;102509.47;5071182;28;20570;-52
2023/03/02 00:18:58;;;;;;;40.03;21.25;;;;;;;2.33;100.00;102501.47;5066766;28;20055;-53
2023/03/02 00:21:23;;;;;;;41.22;20.58;;;;;;;2.31;100.00;102499.84;5071042;28;20055;-52
2023/03/02 00:23:50;;;;;;;44.75;21.17;;;;;;;2.33;100.00;102497.97;5071982;28;20480;-51
2023/03/02 00:26:16;;;;;;;45.58;22.52;;;;;;;2.27;100.00;102499.19;5072743;28;20376;-51
2023/03/02 00:28:41;;;;;;;45.75;22.67;;;;;;;2.24;100.00;102504.69;5072111;28;20107;-52
2023/03/02 00:31:06;;;;;;;45.88;23.02;;;;;;;2.22;100.00;102495.94;5072999;28;20063;-55
2023/03/02 00:33:32;;;;;;;50.53;23.17;;;;;;;2.20;100.00;102492.50;5074457;28;20104;-51
2023/03/02 00:35:57;;;;;;;52.88;23.92;;;;;;;2.24;100.00;102494.06;5073352;28;20474;-50
2023/03/02 00:38:23;;;;;;;54.55;25.58;;;;;;;2.28;100.00;102500.03;5071661;28;20066;-51
2023/03/02 00:40:49;;;;;;;52.50;25.30;;;;;;;2.25;100.00;102494.91;5071781;28;20059;-52
2023/03/02 00:43:15;;;;;;;52.90;26.13;;;;;;;2.25;100.00;102498.41;5071246;28;20111;-50
2023/03/02 00:45:41;;;;;;;57.42;27.55;;;;;;;2.26;100.00;102505.44;5071227;28;20028;-53
2023/03/02 00:48:07;;;;;;;54.83;26.02;;;;;;;2.20;100.00;102500.47;5070991;28;20340;-52
2023/03/02 00:50:33;;;;;;;60.10;26.77;;;;;;;2.21;100.00;102502.16;5070941;28;20032;-51
2023/03/02 00:52:59;;;;;;;61.45;28.30;;;;;;;2.16;100.00;102501.59;5069580;28;20028;-52
2023/03/02 00:55:24;;;;;;;55.70;26.67;;;;;;;2.18;100.00;102502.34;5071022;28;20032;-50
2023/03/02 00:57:55;;;;;;;63.90;28.08;;;;;;;2.19;100.00;102502.28;5070737;28;20056;-50
2023/03/02 01:00:21;;;;;;;60.13;28.92;;;;;;;2.14;100.00;102495.50;5071123;28;20386;-50
2023/03/02 01:02:48;;;;;;;66.80;29.15;;;;;;;2.14;100.00;102499.03;5069128;28;20024;-50
2023/03/02 01:05:13;;;;;;;63.53;28.75;;;;;;;2.13;100.00;102504.41;5071811;28;20032;-51
2023/03/02 01:07:38;;;;;;;63.90;29.40;;;;;;;2.10;100.00;102494.81;5070765;28;20035;-51
2023/03/02 01:10:04;;;;;;;72.15;31.15;;;;;;;2.07;100.00;102495.00;5070702;28;20043;-52
2023/03/02 01:12:30;;;;;;;64.78;28.63;;;;;;;2.06;100.00;102500.41;5071215;28;20028;-51
2023/03/02 01:14:56;;;;;;;63.70;30.55;;;;;;;2.06;100.00;102497.75;5070829;28;20123;-51
2023/03/02 01:17:21;;;;;;;66.70;30.40;;;;;;;2.05;100.00;102503.97;5069027;28;20115;-52
2023/03/02 01:19:47;;;;;;;67.75;31.27;;;;;;;1.98;100.00;102512.31;5070470;28;20029;-50
2023/03/02 01:22:12;;;;;;;72.65;31.52;;;;;;;2.01;100.00;102497.16;5070659;28;20119;-53
2023/03/02 01:24:38;;;;;;;69.80;30.70;;;;;;;2.02;100.00;102510.31;5068635;28;20509;-52
2023/03/02 01:27:03;;;;;;;74.07;31.77;;;;;;;2.00;100.00;102511.34;5069436;28;20115;-52
2023/03/02 01:29:29;;;;;;;75.50;32.28;;;;;;;1.95;100.00;102517.78;5069526;28;20443;-51
2023/03/02 01:31:54;;;;;;;74.97;32.83;;;;;;;1.90;100.00;102516.34;5069203;28;20390;-53
2023/03/02 01:34:20;;;;;;;76.25;32.70;;;;;;;1.87;100.00;102514.69;5069989;28;20029;-54
2023/03/02 01:36:45;;;;;;;72.88;32.83;;;;;;;1.80;100.00;102505.34;5070438;28;20562;-51
2023/03/02 01:39:14;;;;;;;79.97;33.35;;;;;;;1.79;100.00;102511.63;5070221;28;20028;-51
2023/03/02 01:41:41;;;;;;;73.55;32.35;;;;;;;1.79;100.00;102503.66;5070041;28;20538;-51
2023/03/02 01:44:33;;;;;;;78.57;33.92;;;;;;;1.76;100.00;102503.78;5070001;28;20063;-52
2023/03/02 01:46:58;;;;;;;77.35;32.30;;;;;;;1.78;100.00;102504.56;5070213;28;20479;-50
2023/03/02 01:49:24;;;;;;;80.72;33.80;;;;;;;1.77;100.00;102500.22;5073805;28;20041;-52
2023/03/02 01:51:50;;;;;;;76.60;32.67;;;;;;;1.70;100.00;102494.38;5072518;28;20031;-53
2023/03/02 01:54:21;;;;;;;83.72;33.95;;;;;;;1.62;100.00;102501.03;5072374;28;20028;-53
2023/03/02 01:56:49;;;;;;;82.25;33.33;;;;;;;1.53;100.00;102507.72;5072496;28;20036;-51
2023/03/02 01:59:17;;;;;;;85.47;35.03;;;;;;;1.44;100.00;102505.53;5072575;28;20021;-51
2023/03/02 02:01:46;;;;;;;76.90;32.97;;;;;;;1.40;100.00;102511.97;5072516;28;20463;-51
2023/03/02 02:04:12;;;;;;;90.40;33.58;;;;;;;1.32;100.00;102504.41;5073463;28;20063;-51
2023/03/02 02:06:42;;;;;;;88.45;34.83;;;;;;;1.27;100.00;102504.63;5073628;28;20024;-51
2023/03/02 02:09:10;;;;;;;93.78;34.10;;;;;;;1.25;100.00;102508.31;5072347;28;20098;-51
2023/03/02 02:11:35;;;;;;;83.72;32.80;;;;;;;1.20;100.00;102502.38;5073499;28;20063;-51
2023/03/02 02:14:01;;;;;;;90.50;34.00;;;;;;;1.19;100.00;102498.03;5073771;28;20052;-51
2023/03/02 02:16:28;;;;;;;94.32;33.53;;;;;;;1.16;100.00;102495.53;5072223;28;20059;-52
2023/03/02 02:18:54;;;;;;;92.90;34.13;;;;;;;1.13;100.00;102504.50;5073426;28;20376;-52
2023/03/02 02:21:20;;;;;;;93.03;34.35;;;;;;;1.13;100.00;102496.53;5072136;28;20021;-51
2023/03/02 02:24:00;;;;;;;92.45;32.47;;;;;;;1.12;100.00;102486.03;5073225;28;20112;-51
2023/03/02 02:26:29;;;;;;;89.78;34.95;;;;;;;1.12;100.00;102484.22;5073503;28;20048;-50
2023/03/02 02:28:57;;;;;;;95.95;33.75;;;;;;;1.10;100.00;102483.44;5073345;28;20382;-50
2023/03/02 02:31:50;;;;;;;99.47;34.83;;;;;;;1.08;100.00;102472.09;5072367;28;20030;-52
2023/03/02 02:34:31;;;;;;;100.50;34.08;;;;;;;1.05;100.00;102472.22;5072138;28;20028;-50
2023/03/02 02:37:02;;;;;;;100.35;35.25;;;;;;;1.05;100.00;102480.16;5072090;28;20043;-52
2023/03/02 02:39:31;;;;;;;107.75;36.75;;;;;;;1.01;100.00;102474.19;5071933;28;20356;-51
2023/03/02 02:42:02;;;;;;;108.72;37.10;;;;;;;0.97;100.00;102483.22;5071711;28;20016;-50
2023/03/02 02:44:27;;;;;;;105.97;35.35;;;;;;;0.95;100.00;102476.28;5071920;28;20110;-53
2023/03/02 02:46:53;;;;;;;111.20;38.65;;;;;;;0.95;100.00;102478.94;5071730;28;20111;-51
2023/03/02 02:49:30;;;;;;;105.55;36.08;;;;;;;0.92;100.00;102484.41;5073442;28;20048;-51
2023/03/02 02:51:56;;;;;;;111.18;39.53;;;;;;;0.85;100.00;102475.91;5073106;28;20036;-51
2023/03/02 02:54:22;;;;;;;102.55;36.92;;;;;;;0.87;100.00;102474.91;5071934;28;20025;-52
2023/03/02 02:56:49;;;;;;;114.85;38.08;;;;;;;0.87;100.00;102482.00;5071567;28;20031;-53
2023/03/02 02:59:18;;;;;;;115.15;38.38;;;;;;;0.89;100.00;102480.09;5070558;28;20556;-51
2023/03/02 03:01:45;;;;;;;110.43;38.17;;;;;;;0.93;100.00;102476.38;5071707;28;20035;-50
2023/03/02 03:04:13;;;;;;;111.30;37.58;;;;;;;0.91;100.00;102470.28;5071560;28;20039;-50
2023/03/02 03:06:58;;;;;;;112.63;39.60;;;;;;;0.92;100.00;102474.66;5071385;28;20032;-51
2023/03/02 03:09:24;;;;;;;116.45;36.65;;;;;;;0.90;100.00;102471.25;5072858;28;20455;-51
2023/03/02 03:11:55;;;;;;;113.28;36.38;;;;;;;0.92;100.00;102472.00;5072426;28;20609;-53
2023/03/02 03:14:36;;;;;;;118.95;37.97;;;;;;;0.96;100.00;102473.56;5073133;28;20390;-51
2023/03/02 03:17:01;;;;;;;109.22;35.28;;;;;;;0.95;100.00;102474.50;5053031;28;20367;-52
2023/03/02 03:19:31;;;;;;;109.47;35.35;;;;;;;0.88;100.00;102467.81;5053130;28;20103;-52
2023/03/02 03:21:59;;;;;;;118.03;39.17;;;;;;;0.89;100.00;102461.56;5052555;28;20021;-51
2023/03/02 03:24:25;;;;;;;116.18;39.08;;;;;;;0.86;100.00;102461.72;5052955;28;20031;-51
2023/03/02 03:26:50;;;;;;;117.30;39.35;;;;;;;0.88;100.00;102462.50;5052551;28;20033;-51
2023/03/02 03:29:17;;;;;;;114.43;36.95;;;;;;;0.90;100.00;102459.78;5052596;28;20126;-53
2023/03/02 03:31:42;;;;;;;124.03;39.35;;;;;;;0.88;100.00;102451.91;5052101;28;20398;-51
2023/03/02 03:34:08;;;;;;;119.82;39.08;;;;;;;0.85;100.00;102457.38;5052091;28;20092;-52
2023/03/02 03:36:35;;;;;;;118.47;37.65;;;;;;;0.82;100.00;102457.53;5051924;28;20048;-51
2023/03/02 03:39:00;;;;;;;125.47;40.28;;;;;;;0.78;100.00;102466.56;5052069;28;20060;-50
2023/03/02 03:41:26;;;;;;;121.95;37.55;;;;;;;0.78;100.00;102455.97;5051805;28;20048;-51
2023/03/02 03:43:51;;;;;;;124.40;40.15;;;;;;;0.78;100.00;102458.59;5051720;28;20032;-53
2023/03/02 03:46:17;;;;;;;126.97;38.10;;;;;;;0.79;100.00;102458.53;5051741;28;20032;-52
2023/03/02 03:48:42;;;;;;;131.25;39.03;;;;;;;0.79;100.00;102453.25;5051637;28;20029;-51
2023/03/02 03:51:10;;;;;;;125.30;38.13;;;;;;;0.85;100.00;102452.06;5051695;28;20109;-51
2023/03/02 03:53:35;;;;;;;127.77;39.17;;;;;;;0.83;100.00;102459.22;5052033;28;20032;-51
2023/03/02 03:56:02;;;;;;;121.72;37.30;;;;;;;0.81;100.00;102453.16;5051457;28;20021;-53
2023/03/02 03:58:28;;;;;;;115.75;36.05;;;;;;;0.78;100.00;102450.66;5051715;28;20036;-50
2023/03/02 04:00:54;;;;;;;117.00;36.22;;;;;;;0.78;100.00;102456.81;5051584;28;20025;-51
2023/03/02 04:03:20;;;;;;;125.22;38.35;;;;;;;0.83;100.00;102460.09;5051390;28;20339;-52
2023/03/02 04:05:46;;;;;;;127.38;37.88;;;;;;;0.83;100.00;102456.56;5051826;28;20079;-54
2023/03/02 04:08:11;;;;;;;118.47;34.67;;;;;;;0.82;100.00;102455.72;5051289;28;20024;-51
2023/03/02 04:10:37;;;;;;;125.72;37.13;;;;;;;0.86;100.00;102459.06;5050884;28;20051;-52
2023/03/02 04:13:03;;;;;;;127.70;37.65;;;;;;;0.84;100.00;102461.81;5049962;28;20039;-50
2023/03/02 04:15:28;;;;;;;126.72;38.33;;;;;;;0.82;100.00;102453.06;5051224;28;20547;-51
2023/03/02 04:17:54;;;;;;;121.22;38.45;;;;;;;0.85;100.00;102467.97;5050961;28;20052;-55
2023/03/02 04:20:20;;;;;;;126.45;39.50;;;;;;;0.83;100.00;102461.88;5051271;28;20353;-53
2023/03/02 04:22:48;;;;;;;125.28;38.92;;;;;;;0.85;100.00;102462.66;5051017;28;20029;-50
2023/03/02 04:25:18;;;;;;;129.07;40.67;;;;;;;0.81;100.00;102469.91;5051364;28;20025;-52
2023/03/02 04:27:44;;;;;;;126.85;38.92;;;;;;;0.84;100.00;102476.84;5050850;28;20031;-52
2023/03/02 04:30:11;;;;;;;130.32;39.22;;;;;;;0.84;100.00;102463.59;5051109;28;20021;-52
2023/03/02 04:32:36;;;;;;;125.10;36.40;;;;;;;0.86;100.00;102467.03;5050839;28;20033;-50
2023/03/02 04:35:02;;;;;;;134.00;40.10;;;;;;;0.88;100.00;102465.16;5050865;28;20460;-51
2023/03/02 04:37:27;;;;;;;131.43;37.35;;;;;;;0.91;100.00;102462.34;5050766;28;20029;-50
2023/03/02 04:39:52;;;;;;;124.78;37.47;;;;;;;0.87;100.00;102460.81;5050915;28;20079;-52
2023/03/02 04:42:19;;;;;;;125.40;37.47;;;;;;;0.90;100.00;102463.28;5050637;28;20056;-51
2023/03/02 04:44:44;;;;;;;124.68;37.72;;;;;;;0.86;100.00;102459.06;5050744;28;20017;-51
2023/03/02 04:47:10;;;;;;;113.68;34.80;;;;;;;0.92;100.00;102458.75;5050422;28;20040;-54
2023/03/02 04:49:35;;;;;;;128.45;37.50;;;;;;;0.89;100.00;102456.25;5050822;28;20029;-50
2023/03/02 04:52:01;;;;;;;123.88;35.72;;;;;;;0.89;100.00;102453.59;5050651;28;20450;-53
2023/03/02 04:54:26;;;;;;;122.55;37.42;;;;;;;0.88;100.00;102443.94;5050792;28;20025;-50
2023/03/02 04:56:53;;;;;;;123.25;37.53;;;;;;;0.85;100.00;102452.06;5050626;28;20158;-50
2023/03/02 04:59:24;;;;;;;119.43;35.58;;;;;;;0.83;100.00;102448.63;5050728;28;20490;-50
2023/03/02 05:01:50;;;;;;;114.75;35.88;;;;;;;0.82;100.00;102457.53;5050619;28;20409;-51
2023/03/02 05:04:16;;;;;;;131.07;37.22;;;;;;;0.80;100.00;102454.09;5050759;28;20371;-50
2023/03/02 05:06:42;;;;;;;121.97;36.50;;;;;;;0.79;100.00;102458.53;5050685;28;20033;-51
2023/03/02 05:09:07;;;;;;;127.18;36.10;;;;;;;0.75;100.00;102448.16;5050379;28;20434;-51
2023/03/02 05:11:33;;;;;;;123.60;35.35;;;;;;;0.77;100.00;102454.25;5050573;28;20056;-52
2023/03/02 05:14:01;;;;;;;125.72;36.85;;;;;;;0.71;100.00;102452.78;5050239;28;20025;-53
2023/03/02 05:16:30;;;;;;;125.93;37.03;;;;;;;0.72;100.00;102456.28;5050607;28;20116;-51
2023/03/02 05:18:55;;;;;;;126.10;34.45;;;;;;;0.70;100.00;102458.16;5050325;28;20091;-52
2023/03/02 05:21:21;;;;;;;123.32;35.35;;;;;;;0.68;100.00;102450.25;5050707;28;20064;-50
2023/03/02 05:23:47;;;;;;;124.32;37.22;;;;;;;0.71;100.00;102451.91;5053891;28;20025;-50
2023/03/02 05:26:13;;;;;;;115.38;34.20;;;;;;;0.73;100.00;102450.03;5053237;28;20074;-50
2023/03/02 05:28:38;;;;;;;124.40;36.65;;;;;;;0.68;100.00;102446.75;5054823;28;20025;-51
2023/03/02 05:31:04;;;;;;;115.65;34.47;;;;;;;0.68;100.00;102438.81;5054697;28;20426;-51
2023/03/02 05:33:29;;;;;;;122.35;36.60;;;;;;;0.63;100.00;102441.69;5054162;28;20498;-51
2023/03/02 05:35:55;;;;;;;124.75;37.10;;;;;;;0.59;100.00;102437.50;5054188;28;20025;-50
2023/03/02 05:38:20;;;;;;;136.10;37.58;;;;;;;0.53;100.00;102440.47;5054190;28;20025;-51
2023/03/02 05:40:46;;;;;;;125.13;36.05;;;;;;;0.53;100.00;102440.47;5054083;28;20108;-52
2023/03/02 05:43:15;;;;;;;129.45;37.30;;;;;;;0.55;100.00;102441.22;5053969;28;20094;-54
2023/03/02 05:45:41;;;;;;;125.90;35.92;;;;;;;0.55;100.00;102443.88;5053925;28;20067;-52
2023/03/02 05:48:06;;;;;;;137.77;36.90;;;;;;;0.49;100.00;102444.19;5054005;28;20053;-51
2023/03/02 05:50:32;;;;;;;125.93;36.60;;;;;;;0.52;100.00;102457.28;5054111;28;20143;-53
2023/03/02 05:52:59;;;;;;;120.07;34.25;;;;;;;0.50;100.00;102444.13;5053841;28;20383;-51
2023/03/02 05:55:25;;;;;;;123.78;34.50;;;;;;;0.51;100.00;102445.84;5057027;28;20075;-51
2023/03/02 05:57:50;;;;;;;127.05;37.55;;;;;;;0.51;100.00;102455.56;5056723;28;20084;-51
2023/03/02 06:00:17;;;;;;;131.88;37.22;;;;;;;0.48;100.00;102453.09;5055818;28;20491;-52
2023/03/02 06:02:42;;;;;;;132.25;36.60;;;;;;;0.50;100.00;102456.50;5054820;28;20124;-49
2023/03/02 06:05:13;;;;;;;129.95;36.53;;;;;;;0.52;100.00;102460.78;5052405;28;20134;-50
2023/03/02 06:07:39;;;;;;;134.38;38.30;;;;;;;0.54;100.00;102453.63;5053782;28;20463;-51
2023/03/02 06:10:06;;;;;;;125.30;35.80;;;;;;;0.52;100.00;102466.06;5053665;28;20087;-51
2023/03/02 06:12:32;;;;;;;142.05;39.17;;;;;;;0.54;100.00;102458.91;5052245;28;20391;-51
2023/03/02 06:14:58;;;;;;;122.80;35.70;;;;;;;0.55;100.00;102465.91;5052282;28;20021;-51
2023/03/02 06:17:24;;;;;;;121.68;34.95;;;;;;;0.51;100.00;102477.63;5053248;28;20040;-52
2023/03/02 06:19:49;;;;;;;141.77;37.15;;;;;;;0.55;100.00;102470.38;5053172;28;20025;-52
2023/03/02 06:22:14;;;;;;;126.50;36.65;;;;;;;0.51;100.00;102476.78;5053095;28;20483;-52
2023/03/02 06:24:40;;;;;;;131.05;36.97;;;;;;;0.51;100.00;102474.97;5053225;28;20534;-50
2023/03/02 06:27:05;;;;;;;135.40;37.15;;;;;;;0.54;100.00;102480.09;5053043;28;20539;-51
2023/03/02 06:29:30;;;;;;;147.25;40.33;;;;;;;0.56;100.00;102490.66;5053347;28;20025;-52
2023/03/02 06:31:56;;;;;;;124.32;36.63;;;;;;;0.55;100.00;102481.81;5053223;28;20091;-53
2023/03/02 06:34:21;;;;;;;137.05;37.28;;;;;;;0.53;100.00;102473.09;5052671;28;20035;-51
2023/03/02 06:36:46;;;;;;;129.63;38.28;;;;;;;0.57;100.00;102485.25;5053133;28;20089;-51
2023/03/02 06:39:14;;;;;;;135.50;38.65;;;;;;;0.60;100.00;102477.16;5052927;28;20039;-53
2023/03/02 06:41:42;;;;;;;136.38;37.72;;;;;;;0.58;100.00;102481.69;5051611;28;20025;-53
2023/03/02 06:44:07;;;;;;;126.80;35.63;;;;;;;0.63;100.00;102484.09;5053003;28;20063;-51
2023/03/02 06:46:32;;;;;;;144.63;39.67;;;;;;;0.73;100.00;102473.88;5053015;28;20325;-51
2023/03/02 06:48:58;;;;;;;138.98;37.83;;;;;;;0.85;100.00;102481.22;5052977;28;20351;-52
2023/03/02 06:51:23;;;;;;;138.30;37.00;;;;;;;0.95;100.00;102479.81;5052356;28;20052;-52
2023/03/02 06:53:48;;;;;;;156.60;38.33;;;;;;;1.05;100.00;102480.16;5052888;28;20055;-53
2023/03/02 06:56:14;;;;;;;137.88;39.42;;;;;;;1.20;100.00;102484.69;5052461;28;20021;-54
2023/03/02 06:58:39;;;;;;;136.15;37.47;;;;;;;1.39;100.00;102484.56;5052513;28;20025;-54
2023/03/02 07:01:06;;;;;;;135.88;38.38;;;;;;;1.50;100.00;102476.91;5052354;28;20306;-51
2023/03/02 07:03:32;;;;;;;135.07;39.58;;;;;;;1.58;100.00;102483.56;5052352;28;20048;-51
2023/03/02 07:05:57;;;;;;;134.32;40.00;;;;;;;1.67;100.00;102483.06;5052438;28;20471;-52
2023/03/02 07:08:22;;;;;;;129.80;38.53;;;;;;;1.74;100.00;102481.81;5052465;28;20138;-51
2023/03/02 07:10:48;;;;;;;127.35;36.00;;;;;;;1.91;100.00;102481.72;5052313;28;20021;-53
2023/03/02 07:13:13;;;;;;;129.38;36.25;;;;;;;2.08;100.00;102479.91;5052339;28;20033;-53
2023/03/02 07:15:39;;;;;;;128.38;36.20;;;;;;;2.17;100.00;102476.75;5052334;28;20410;-52
2023/03/02 07:18:04;;;;;;;132.95;37.00;;;;;;;2.28;100.00;102476.97;5051955;28;20053;-53
2023/03/02 07:20:30;;;;;;;136.52;35.63;;;;;;;2.38;100.00;102480.81;5051794;28;20364;-51
2023/03/02 07:22:55;;;;;;;121.13;34.85;;;;;;;2.43;100.00;102472.59;5052253;28;20078;-53
2023/03/02 07:25:21;;;;;;;127.75;34.47;;;;;;;2.49;100.00;102474.03;5050485;28;20475;-51
2023/03/02 07:27:46;;;;;;;119.10;35.03;;;;;;;2.57;100.00;102471.78;5051942;28;20082;-51
2023/03/02 07:30:13;;;;;;;124.40;36.17;;;;;;;2.72;100.00;102483.31;5051811;28;20033;-54
2023/03/02 07:32:39;;;;;;;131.38;36.25;;;;;;;2.95;100.00;102473.94;5052165;28;20032;-54
2023/03/02 07:35:04;;;;;;;113.05;33.63;;;;;;;3.38;100.00;102471.34;5051623;28;20029;-51
2023/03/02 07:37:30;;;;;;;122.28;34.50;;;;;;;3.41;100.00;102458.69;5051766;28;20039;-52
2023/03/02 07:39:55;;;;;;;127.75;35.72;;;;;;;3.56;100.00;102454.22;5052485;28;20056;-51
2023/03/02 07:42:20;;;;;;;118.15;34.33;;;;;;;3.87;100.00;102458.47;5051695;28;20052;-53
2023/03/02 07:44:46;;;;;;;127.53;35.90;;;;;;;4.14;100.00;102450.50;5051320;28;20390;-51
2023/03/02 07:47:12;;;;;;;106.75;33.25;;;;;;;4.33;100.00;102443.94;5050391;28;20029;-50
2023/03/02 07:49:37;;;;;;;109.65;33.53;;;;;;;4.64;100.00;102449.91;5052131;28;20035;-51
2023/03/02 07:52:03;;;;;;;108.57;33.03;;;;;;;5.28;100.00;102448.09;5051330;28;20029;-50
2023/03/02 07:54:29;;;;;;;110.43;33.15;;;;;;;6.13;100.00;102450.91;5050121;28;20131;-53
2023/03/02 07:56:55;;;;;;;108.10;34.67;;;;;;;7.24;100.00;102457.59;5051085;28;20529;-51
2023/03/02 07:59:21;;;;;;;100.03;31.88;;;;;;;8.00;100.00;102448.88;5051504;28;20090;-51
2023/03/02 08:01:46;;;;;;;102.72;32.80;;;;;;;8.64;100.00;102446.25;5050898;28;20021;-50
2023/03/02 08:04:12;;;;;;;95.43;31.23;;;;;;;8.95;96.58;102436.41;5050913;28;20029;-51
2023/03/02 08:06:37;;;;;;;107.00;33.25;;;;;;;9.30;93.38;102437.88;5051371;28;20037;-51
2023/03/02 08:09:03;;;;;;;98.88;32.05;;;;;;;9.77;89.62;102448.94;5050950;28;20104;-52
2023/03/02 08:11:28;;;;;;;103.03;33.78;;;;;;;10.18;84.84;102444.31;5051287;28;20025;-53
2023/03/02 08:13:54;;;;;;;98.13;33.08;;;;;;;10.13;82.99;102430.44;5051057;28;20075;-50
2023/03/02 08:16:20;;;;;;;92.05;32.75;;;;;;;10.19;81.97;102437.97;5050925;28;20024;-53
2023/03/02 08:18:46;;;;;;;99.32;32.70;;;;;;;10.20;80.58;102436.97;5050797;28;20098;-52
2023/03/02 08:21:17;;;;;;;87.57;32.33;;;;;;;10.30;79.71;102442.41;5050759;28;20021;-52
2023/03/02 08:23:43;;;;;;;91.57;31.60;;;;;;;10.41;78.19;102439.56;5050939;28;20029;-51
2023/03/02 08:26:08;;;;;;;95.18;32.60;;;;;;;10.84;77.84;102435.53;5051042;28;20043;-51
2023/03/02 08:28:34;;;;;;;89.88;31.58;;;;;;;10.96;72.93;102434.41;5050983;28;20450;-52
2023/03/02 08:31:00;;;;;;;92.50;31.67;;;;;;;11.07;72.65;102433.38;5050633;28;20024;-51
2023/03/02 08:33:27;;;;;;;85.95;30.33;;;;;;;11.04;70.75;102430.97;5050768;28;20045;-52
2023/03/02 08:36:04;;;;;;;90.95;31.52;;;;;;;10.94;71.32;102430.16;5050712;28;20144;-53
2023/03/02 08:38:31;;;;;;;88.35;32.60;;;;;;;11.16;70.65;102434.31;5050702;28;20040;-54
2023/03/02 08:40:56;;;;;;;89.90;31.25;;;;;;;11.73;69.26;102428.84;5050472;28;20053;-53
2023/03/02 08:43:23;;;;;;;90.65;31.25;;;;;;;12.01;66.09;102430.53;5050673;28;20506;-51
2023/03/02 08:45:53;;;;;;;83.53;31.90;;;;;;;12.60;63.84;102430.06;5050322;28;20055;-53
2023/03/02 08:48:21;;;;;;;80.25;29.63;;;;;;;12.68;62.17;102438.22;5050550;28;20483;-52
2023/03/02 08:51:00;;;;;;;81.72;30.63;;;;;;;12.85;61.67;102434.66;5050231;28;20441;-52
2023/03/02 08:53:28;;;;;;;79.20;29.55;;;;;;;13.11;59.74;102433.78;5050428;28;20540;-51
2023/03/02 08:55:53;;;;;;;79.28;31.83;;;;;;;12.92;59.20;102424.03;5050411;28;20078;-52
2023/03/02 08:58:18;;;;;;;80.28;29.52;;;;;;;12.87;59.13;102427.22;5050195;28;20024;-51
2023/03/02 09:00:44;;;;;;;78.45;28.30;;;;;;;12.89;56.37;102429.78;5050300;28;20033;-53
2023/03/02 09:03:09;;;;;;;81.43;29.77;;;;;;;12.49;57.55;102426.59;5050087;28;20428;-50
2023/03/02 09:05:34;;;;;;;69.97;27.77;;;;;;;12.71;58.70;102427.09;5049929;28;20033;-51
2023/03/02 09:08:00;;;;;;;71.63;27.15;;;;;;;12.77;56.20;102421.09;5050113;28;20052;-53
2023/03/02 09:10:26;;;;;;;68.82;25.48;;;;;;;12.73;55.80;102423.25;5050106;28;20029;-51
2023/03/02 09:12:51;;;;;;;62.95;24.70;;;;;;;12.40;55.32;102427.56;5050224;28;20044;-52
2023/03/02 09:15:16;;;;;;;73.03;25.02;;;;;;;12.32;54.92;102430.16;5050258;28;20017;-52
2023/03/02 09:17:42;;;;;;;65.93;24.58;;;;;;;12.20;56.41;102434.94;5049864;28;20649;-51
2023/03/02 09:20:08;;;;;;;62.75;24.27;;;;;;;12.27;55.35;102421.69;5050057;28;20066;-51
2023/03/02 09:22:34;;;;;;;64.97;24.55;;;;;;;12.32;55.26;102416.66;5047640;28;20040;-54
2023/03/02 09:25:00;;;;;;;60.42;22.85;;;;;;;12.14;53.99;102421.19;5049994;28;20021;-49
2023/03/02 09:27:26;;;;;;;59.03;23.33;;;;;;;11.84;53.99;102429.47;5048576;28;20021;-50
2023/03/02 09:29:51;;;;;;;61.97;23.48;;;;;;;11.27;55.42;102418.00;5050020;28;20039;-53
2023/03/02 09:32:17;;;;;;;64.47;21.95;;;;;;;11.10;55.24;102425.00;5049857;28;20076;-53
2023/03/02 09:34:42;;;;;;;55.63;21.25;;;;;;;11.09;57.22;102433.22;5050840;28;20048;-53
2023/03/02 09:37:08;;;;;;;62.20;22.35;;;;;;;11.14;55.92;102425.56;5051368;28;20053;-51
2023/03/02 09:39:33;;;;;;;54.30;21.05;;;;;;;10.71;56.40;102425.06;5068862;28;20158;-51
2023/03/02 09:42:18;;;;;;;59.42;21.23;;;;;;;10.44;56.69;102427.66;5068010;28;20024;-51
2023/03/02 09:44:59;;;;;;;52.05;20.17;;;;;;;10.72;57.01;102425.94;5068460;28;20041;-50
2023/03/02 09:47:49;;;;;;;53.47;19.80;;;;;;;10.73;56.80;102420.41;5069023;28;20054;-49
2023/03/02 09:50:26;;;;;;;51.45;20.17;;;;;;;10.50;56.91;102424.38;5069671;28;20016;-52
2023/03/02 09:53:10;;;;;;;55.03;20.50;;;;;;;10.99;57.73;102431.41;5069631;28;20105;-53
2023/03/02 09:55:36;;;;;;;52.15;18.40;;;;;;;11.10;56.19;102414.22;5070029;28;20102;-52
2023/03/02 09:58:11;;;;;;;43.75;17.98;;;;;;;11.24;57.23;102420.13;5069679;28;20056;-53
2023/03/02 10:00:41;;;;;;;38.45;17.23;;;;;;;10.69;56.11;102424.38;5068155;28;20032;-52
2023/03/02 10:03:11;;;;;;;46.58;17.13;;;;;;;10.31;57.65;102409.94;5068228;28;20428;-52
2023/03/02 10:05:41;;;;;;;57.67;19.48;;;;;;;9.88;59.41;102431.84;5068025;28;20024;-51
2023/03/02 10:08:19;;;;;;;38.83;17.35;;;;;;;9.32;60.90;102411.72;5067653;28;20347;-52
2023/03/02 10:11:11;;;;;;;48.45;19.23;;;;;;;9.02;63.70;102413.41;5071982;28;20074;-50
2023/03/02 10:13:45;;;;;;;43.58;17.23;;;;;;;9.13;65.22;102409.78;5062500;28;20079;-53
2023/03/02 10:16:16;;;;;;;45.03;17.38;;;;;;;9.71;66.31;102408.28;5071904;28;20025;-53
2023/03/02 10:19:02;;;;;;;47.25;18.23;;;;;;;9.97;63.85;102420.22;5073307;28;20052;-52
2023/03/02 10:21:32;;;;;;;42.88;16.88;;;;;;;9.53;65.18;102416.16;5071831;28;20028;-52
2023/03/02 10:24:23;;;;;;;38.10;15.77;;;;;;;8.95;66.04;102406.00;5072047;28;20445;-50
2023/03/02 10:27:15;;;;;;;39.20;15.27;;;;;;;8.75;68.53;102405.06;5071877;28;20037;-52
2023/03/02 10:29:46;;;;;;;44.40;16.20;;;;;;;8.65;69.60;102404.13;5068916;28;20060;-51
2023/03/02 10:32:18;;;;;;;33.53;14.48;;;;;;;8.99;70.57;102394.88;5072709;28;20058;-52
2023/03/02 10:34:43;;;;;;;36.45;15.35;;;;;;;9.28;70.74;102412.97;5072807;28;20031;-52
2023/03/02 10:37:18;;;;;;;42.53;16.48;;;;;;;9.19;72.83;102398.50;5072669;28;20028;-53
2023/03/02 10:39:44;;;;;;;41.58;15.52;;;;;;;8.80;73.86;102405.50;5072904;28;20103;-50
2023/03/02 10:42:14;;;;;;;39.53;15.73;;;;;;;8.93;74.46;102414.22;5071604;28;20420;-51
2023/03/02 10:44:44;;;;;;;35.22;15.32;;;;;;;9.08;74.27;102411.16;5071332;28;20111;-50
2023/03/02 10:47:27;;;;;;;37.03;14.80;;;;;;;9.11;72.37;102401.03;5071342;28;20394;-52
2023/03/02 10:49:54;;;;;;;38.35;14.57;;;;;;;8.83;72.44;102402.56;5072500;28;20112;-52
2023/03/02 10:52:25;;;;;;;39.23;15.33;;;;;;;8.38;74.81;102394.75;5072850;28;20031;-52
2023/03/02 10:55:12;;;;;;;32.08;14.80;;;;;;;8.46;76.61;102392.28;5072712;28;20899;-53
2023/03/02 10:57:39;;;;;;;34.65;15.07;;;;;;;8.63;78.19;102400.72;5073036;28;20059;-52
2023/03/02 11:00:20;;;;;;;41.88;16.98;;;;;;;8.73;79.47;102401.66;5072771;28;20020;-51
2023/03/02 11:02:50;;;;;;;34.85;14.75;;;;;;;8.86;76.61;102401.44;5071576;28;20115;-52
2023/03/02 11:05:16;;;;;;;39.90;15.13;;;;;;;8.89;76.60;102404.72;5072214;28;20028;-51
2023/03/02 11:08:03;;;;;;;35.60;14.90;;;;;;;9.09;75.57;102396.78;5072717;28;20090;-52
2023/03/02 11:10:35;;;;;;;35.25;15.25;;;;;;;9.34;76.99;102400.81;5072350;28;20340;-51